createdAt,value
2019-05-17T03:47:07.625Z,8.40
2019-05-17T03:49:39.470Z,8.30
2019-05-17T03:52:07.323Z,8.20
2019-05-17T03:54:36.323Z,8.70
2019-05-17T03:57:04.356Z,8.50
2019-05-17T03:59:33.702Z,8.40
2019-05-17T04:02:03.803Z,8.30
2019-05-17T04:04:33.083Z,8.40
2019-05-17T04:07:03.415Z,8.80
2019-05-17T04:09:32.864Z,8.60
2019-05-17T04:12:02.820Z,8.50
2019-05-17T04:14:33.513Z,8.90
2019-05-17T04:17:03.200Z,8.50
2019-05-17T04:19:37.115Z,8.50
2019-05-17T04:22:05.085Z,8.80
2019-05-17T04:24:35.016Z,9.10
2019-05-17T04:27:03.778Z,9.20
2019-05-17T04:29:33.424Z,9.20
2019-05-17T04:32:04.022Z,8.70
2019-05-17T04:34:33.769Z,9.20
2019-05-17T04:37:04.261Z,9.00
2019-05-17T04:39:32.816Z,9.00
2019-05-17T04:42:03.723Z,9.00
2019-05-17T04:44:33.376Z,8.80
2019-05-17T04:47:03.040Z,9.20
2019-05-17T04:49:33.066Z,9.10
2019-05-17T04:52:03.431Z,9.50
2019-05-17T04:54:33.686Z,10.00
2019-05-17T04:57:02.676Z,9.50
2019-05-17T04:59:33.726Z,9.20
2019-05-17T05:02:03.555Z,9.10
2019-05-17T05:04:36.142Z,9.20
2019-05-17T05:07:09.888Z,9.60
2019-05-17T05:09:57.242Z,9.60
2019-05-17T05:12:25.226Z,9.50
2019-05-17T05:14:53.267Z,9.80
2019-05-17T05:17:22.145Z,10.30
2019-05-17T05:19:52.855Z,10.20
2019-05-17T05:22:22.508Z,10.00
2019-05-17T05:24:52.338Z,10.20
2019-05-17T05:27:19.614Z,10.60
2019-05-17T05:29:47.806Z,11.00
2019-05-17T05:32:15.838Z,11.20
2019-05-17T05:34:46.331Z,10.80
2019-05-17T05:37:13.605Z,11.10
2019-05-17T05:39:41.653Z,11.40
2019-05-17T05:42:11.514Z,11.20
2019-05-17T05:44:41.436Z,11.10
2019-05-17T05:47:11.465Z,11.70
2019-05-17T05:49:38.818Z,12.00
2019-05-17T05:52:06.809Z,12.10
2019-05-17T05:54:34.848Z,12.00
2019-05-17T05:57:02.821Z,12.30
2019-05-17T05:59:31.688Z,12.40
2019-05-17T06:02:01.786Z,12.40
2019-05-17T06:04:31.846Z,12.50
2019-05-17T06:07:00.034Z,12.80
2019-05-17T06:09:28.041Z,12.50
2019-05-17T06:11:56.117Z,12.70
2019-05-17T06:14:24.170Z,13.00
2019-05-17T06:16:52.233Z,13.20
2019-05-17T06:19:22.251Z,13.20
2019-05-17T06:21:51.962Z,13.30
2019-05-17T06:24:19.752Z,13.30
2019-05-17T06:26:47.744Z,13.30
2019-05-17T06:29:15.749Z,13.50
2019-05-17T06:31:43.902Z,13.50
2019-05-17T06:34:11.886Z,13.60
2019-05-17T06:36:42.089Z,13.70
2019-05-17T06:39:11.744Z,13.80
2019-05-17T06:41:41.700Z,13.40
2019-05-17T06:44:09.095Z,13.40
2019-05-17T06:46:37.688Z,13.60
2019-05-17T06:49:05.741Z,13.80
2019-05-17T06:51:33.814Z,14.00
2019-05-17T06:54:01.929Z,14.10
2019-05-17T06:56:32.227Z,14.10
2019-05-17T06:59:00.225Z,14.20
2019-05-17T07:01:29.242Z,14.30
2019-05-17T07:03:57.305Z,14.10
2019-05-17T07:06:29.505Z,14.40
2019-05-17T07:08:56.658Z,14.40
2019-05-17T07:11:24.641Z,14.30
2019-05-17T07:13:52.626Z,14.40
2019-05-17T07:16:20.613Z,14.30
2019-05-17T07:18:49.401Z,14.40
2019-05-17T07:21:20.378Z,14.20
2019-05-17T07:23:49.794Z,14.40
2019-05-17T07:26:19.565Z,14.60
2019-05-17T07:28:46.789Z,14.70
2019-05-17T07:31:14.788Z,14.80
2019-05-17T07:33:42.817Z,14.90
2019-05-17T07:36:10.918Z,15.00
2019-05-17T07:38:39.673Z,15.00
2019-05-17T07:41:09.942Z,14.90
2019-05-17T07:43:37.589Z,15.00
2019-05-17T07:46:05.712Z,15.00
2019-05-17T07:48:33.770Z,15.10
2019-05-17T07:51:01.788Z,15.20
2019-05-17T07:53:30.696Z,15.20
2019-05-17T07:55:59.665Z,15.20
2019-05-17T07:58:29.998Z,15.30
2019-05-17T08:00:57.675Z,15.30
2019-05-17T08:03:25.681Z,15.20
2019-05-17T08:05:53.689Z,14.90
2019-05-17T08:08:21.818Z,15.20
2019-05-17T08:10:51.084Z,15.10
2019-05-17T08:13:27.441Z,15.10
2019-05-17T08:15:50.154Z,15.40
2019-05-17T08:18:20.028Z,15.30
2019-05-17T08:20:49.987Z,15.30
2019-05-17T08:23:20.218Z,15.20
2019-05-17T08:25:52.651Z,15.50
2019-05-17T08:28:17.159Z,15.60
2019-05-17T08:30:45.209Z,15.50
2019-05-17T08:33:13.228Z,15.70
2019-05-17T08:35:41.232Z,15.70
2019-05-17T08:38:10.382Z,15.90
2019-05-17T08:40:40.412Z,16.00
2019-05-17T08:43:09.988Z,16.00
2019-05-17T08:45:40.594Z,16.00
2019-05-17T08:48:09.569Z,16.00
2019-05-17T08:50:40.161Z,15.90
2019-05-17T08:53:07.625Z,16.00
2019-05-17T08:55:35.712Z,16.20
2019-05-17T08:58:03.710Z,16.40
2019-05-17T09:00:31.731Z,16.50
2019-05-17T09:03:00.184Z,16.70
2019-05-17T09:05:30.238Z,16.60
2019-05-17T09:07:59.972Z,16.70
2019-05-17T09:10:29.831Z,16.80
2019-05-17T09:12:59.551Z,16.90
2019-05-17T09:15:27.050Z,16.80
2019-05-17T09:17:55.158Z,17.10
2019-05-17T09:20:23.295Z,17.30
2019-05-17T09:22:51.382Z,17.00
2019-05-17T09:25:21.923Z,17.30
2019-05-17T09:27:50.112Z,17.30
2019-05-17T09:30:20.461Z,17.60
2019-05-17T09:32:50.320Z,17.70
2019-05-17T09:35:20.828Z,17.80
2019-05-17T09:37:49.891Z,17.90
2019-05-17T09:40:20.064Z,18.00
2019-05-17T09:42:49.850Z,18.00
2019-05-17T09:45:19.940Z,18.10
2019-05-17T09:47:47.331Z,18.20
2019-05-17T09:50:15.581Z,18.20
2019-05-17T09:52:43.645Z,18.10
2019-05-17T09:55:11.999Z,18.20
2019-05-17T09:57:40.928Z,18.20
2019-05-17T10:00:10.119Z,18.30
2019-05-17T10:02:40.123Z,18.30
2019-05-17T10:05:10.667Z,18.40
2019-05-17T10:07:40.243Z,18.50
2019-05-17T10:10:10.465Z,18.50
2019-05-17T10:12:40.204Z,18.50
2019-05-17T10:15:09.819Z,18.60
2019-05-17T10:17:37.454Z,18.60
2019-05-17T10:20:06.217Z,18.80
2019-05-17T10:22:34.263Z,18.80
2019-05-17T10:25:02.336Z,18.70
2019-05-17T10:27:30.438Z,18.90
2019-05-17T10:29:59.507Z,19.10
2019-05-17T10:32:30.494Z,19.10
2019-05-17T10:34:57.312Z,19.40
2019-05-17T10:37:25.331Z,19.30
2019-05-17T10:39:53.408Z,19.60
2019-05-17T10:42:21.462Z,19.60
2019-05-17T10:44:51.081Z,19.80
2019-05-17T10:47:19.614Z,19.90
2019-05-17T10:49:49.611Z,20.00
2019-05-17T10:52:20.152Z,19.90
2019-05-17T10:54:47.165Z,19.90
2019-05-17T10:57:15.154Z,20.10
2019-05-17T10:59:43.157Z,19.90
2019-05-17T11:02:11.138Z,20.10
2019-05-17T11:04:40.169Z,20.40
2019-05-17T11:07:10.534Z,20.40
2019-05-17T11:09:40.244Z,20.50
2019-05-17T11:12:07.969Z,20.60
2019-05-17T11:14:50.429Z,20.60
2019-05-17T11:17:05.668Z,20.40
2019-05-17T11:19:33.808Z,20.50
2019-05-17T11:22:01.794Z,20.60
2019-05-17T11:24:29.791Z,20.50
2019-05-17T11:26:57.773Z,20.50
2019-05-17T11:29:25.956Z,20.60
2019-05-17T11:31:53.961Z,20.70
2019-05-17T11:34:25.368Z,20.70
2019-05-17T11:36:51.647Z,20.60
2019-05-17T11:39:19.644Z,20.60
2019-05-17T11:41:47.625Z,20.40
2019-05-17T11:44:15.679Z,20.50
2019-05-17T11:46:43.672Z,20.70
2019-05-17T11:49:11.724Z,21.10
2019-05-17T11:51:39.714Z,21.30
2019-05-17T11:54:07.769Z,21.40
2019-05-17T11:56:35.754Z,21.50
2019-05-17T11:59:03.739Z,21.10
2019-05-17T12:01:31.798Z,21.10
2019-05-17T12:03:59.782Z,21.40
2019-05-17T12:06:27.770Z,21.50
2019-05-17T12:08:55.757Z,21.70
2019-05-17T12:11:23.759Z,21.80
2019-05-17T12:13:51.748Z,21.90
2019-05-17T12:16:19.745Z,21.70
2019-05-17T12:18:47.728Z,21.60
2019-05-17T12:21:15.730Z,21.70
2019-05-17T12:23:43.717Z,21.80
2019-05-17T12:26:11.766Z,21.90
2019-05-17T12:28:39.814Z,21.90
2019-05-17T12:31:07.824Z,22.10
2019-05-17T12:33:35.805Z,21.70
2019-05-17T12:36:04.345Z,21.90
2019-05-17T12:38:32.361Z,22.20
2019-05-17T12:41:00.366Z,21.90
2019-05-17T12:43:28.421Z,22.10
2019-05-17T12:46:00.622Z,22.00
2019-05-17T12:48:26.104Z,22.00
2019-05-17T12:50:54.109Z,22.40
2019-05-17T12:53:22.140Z,22.50
2019-05-17T12:55:50.154Z,22.70
2019-05-17T12:58:18.140Z,22.70
2019-05-17T13:00:46.155Z,22.50
2019-05-17T13:03:14.202Z,22.60
2019-05-17T13:05:42.238Z,22.90
2019-05-17T13:08:10.261Z,22.90
2019-05-17T13:10:38.318Z,23.00
2019-05-17T13:13:09.384Z,23.00
2019-05-17T13:15:35.993Z,23.10
2019-05-17T13:18:03.977Z,23.20
2019-05-17T13:20:32.062Z,23.10
2019-05-17T13:23:00.052Z,22.90
2019-05-17T13:25:28.033Z,22.80
2019-05-17T13:27:56.035Z,22.70
2019-05-17T13:30:24.089Z,22.80
2019-05-17T13:32:52.086Z,22.90
2019-05-17T13:35:20.229Z,23.10
2019-05-17T13:37:48.239Z,23.10
2019-05-17T13:40:16.394Z,23.10
2019-05-17T13:42:44.398Z,22.80
2019-05-17T13:45:12.712Z,23.10
2019-05-17T13:47:40.887Z,23.30
2019-05-17T13:50:09.108Z,23.50
2019-05-17T13:52:37.154Z,23.50
2019-05-17T13:55:06.688Z,23.50
2019-05-17T13:57:34.677Z,23.40
2019-05-17T14:00:02.883Z,23.50
2019-05-17T14:02:30.871Z,23.30
2019-05-17T14:04:58.861Z,23.50
2019-05-17T14:07:26.853Z,23.60
2019-05-17T14:09:54.837Z,23.70
2019-05-17T14:12:22.830Z,23.60
2019-05-17T14:14:50.815Z,23.70
2019-05-17T14:17:18.813Z,23.80
2019-05-17T14:19:46.870Z,23.90
2019-05-17T14:22:14.869Z,23.80
2019-05-17T14:24:42.846Z,23.80
2019-05-17T14:27:10.860Z,23.60
2019-05-17T14:29:38.911Z,23.60
2019-05-17T14:32:07.552Z,23.50
2019-05-17T14:34:35.952Z,23.50
2019-05-17T14:37:07.383Z,23.50
2019-05-17T14:39:33.738Z,23.50
2019-05-17T14:42:01.732Z,23.50
2019-05-17T14:44:29.716Z,23.40
2019-05-17T14:46:57.698Z,23.60
2019-05-17T14:49:25.685Z,23.80
2019-05-17T14:51:53.668Z,23.80
2019-05-17T14:54:21.649Z,23.80
2019-05-17T14:56:49.732Z,23.70
2019-05-17T14:59:17.793Z,23.50
2019-05-17T15:01:45.790Z,23.60
2019-05-17T15:04:13.829Z,23.40
2019-05-17T15:06:41.810Z,23.60
2019-05-17T15:09:11.709Z,23.60
2019-05-17T15:11:39.504Z,23.70
2019-05-17T15:14:07.501Z,23.80
2019-05-17T15:16:35.500Z,23.90
2019-05-17T15:19:03.687Z,24.00
2019-05-17T15:21:31.736Z,23.90
2019-05-17T15:23:59.722Z,23.60
2019-05-17T15:26:27.704Z,23.70
2019-05-17T15:28:55.681Z,23.40
2019-05-17T15:31:23.747Z,23.10
2019-05-17T15:33:51.871Z,23.20
2019-05-17T15:36:19.891Z,23.10
2019-05-17T15:38:47.982Z,23.30
2019-05-17T15:41:16.041Z,23.70
2019-05-17T15:43:44.027Z,23.50
2019-05-17T15:46:12.073Z,22.90
2019-05-17T15:48:40.139Z,22.70
2019-05-17T15:51:08.375Z,22.70
2019-05-17T15:53:36.386Z,22.40
2019-05-17T15:56:04.491Z,22.40
2019-05-17T15:58:32.539Z,22.30
2019-05-17T16:01:00.520Z,22.40
2019-05-17T16:03:29.503Z,22.70
2019-05-17T16:05:57.557Z,22.70
2019-05-17T16:08:25.557Z,22.50
2019-05-17T16:10:53.562Z,22.50
2019-05-17T16:13:21.617Z,22.30
2019-05-17T16:15:49.638Z,22.40
2019-05-17T16:18:17.636Z,23.70
2019-05-17T16:20:45.613Z,23.20
2019-05-17T16:23:13.750Z,23.00
2019-05-17T16:25:41.751Z,22.60
2019-05-17T16:28:09.818Z,22.70
2019-05-17T16:30:37.807Z,22.70
2019-05-17T16:33:05.780Z,22.50
2019-05-17T16:35:33.815Z,22.40
2019-05-17T16:38:01.887Z,22.40
2019-05-17T16:40:29.869Z,22.40
2019-05-17T16:42:57.863Z,22.70
2019-05-17T16:45:25.849Z,22.80
2019-05-17T16:47:53.853Z,22.80
2019-05-17T16:50:21.853Z,22.40
2019-05-17T16:53:03.691Z,22.20
2019-05-17T16:55:19.541Z,22.00
2019-05-17T16:57:47.597Z,22.00
2019-05-17T17:00:35.517Z,22.00
2019-05-17T17:03:04.237Z,22.00
2019-05-17T17:05:32.520Z,21.90
2019-05-17T17:08:00.502Z,21.80
2019-05-17T17:10:28.504Z,21.90
2019-05-17T17:12:56.664Z,21.80
2019-05-17T17:15:24.648Z,21.40
2019-05-17T17:17:52.635Z,21.30
2019-05-17T17:20:21.907Z,21.40
2019-05-17T17:22:50.070Z,21.60
2019-05-17T17:25:18.132Z,21.70
2019-05-17T17:27:46.186Z,21.60
2019-05-17T17:30:14.365Z,21.80
2019-05-17T17:32:42.360Z,21.70
2019-05-17T17:35:10.666Z,21.90
2019-05-17T17:37:38.750Z,21.90
2019-05-17T17:40:07.326Z,21.70
2019-05-17T17:42:36.184Z,21.50
2019-05-17T17:45:05.779Z,21.40
2019-05-17T17:47:33.826Z,21.20
2019-05-17T17:50:01.818Z,21.20
2019-05-17T17:52:29.856Z,20.90
2019-05-17T17:54:57.866Z,20.90
2019-05-17T17:57:25.931Z,21.00
2019-05-17T17:59:55.608Z,21.20
2019-05-17T18:02:24.090Z,21.40
2019-05-17T18:04:52.093Z,21.40
2019-05-17T18:07:20.072Z,20.90
2019-05-17T18:09:48.097Z,20.70
2019-05-17T18:12:16.097Z,20.60
2019-05-17T18:14:44.156Z,20.60
2019-05-17T18:17:12.198Z,20.70
2019-05-17T18:19:40.183Z,20.60
2019-05-17T18:22:08.229Z,20.80
2019-05-17T18:24:36.213Z,20.60
2019-05-17T18:27:04.211Z,20.30
2019-05-17T18:29:32.199Z,20.40
2019-05-17T18:32:00.230Z,20.50
2019-05-17T18:34:28.324Z,20.50
2019-05-17T18:36:56.383Z,20.60
2019-05-17T18:39:24.360Z,20.70
2019-05-17T18:41:54.756Z,20.40
2019-05-17T18:44:27.880Z,20.10
2019-05-17T18:46:52.545Z,20.00
2019-05-17T18:49:20.530Z,20.10
2019-05-17T18:51:48.550Z,19.70
2019-05-17T18:54:17.006Z,19.60
2019-05-17T18:56:45.077Z,19.50
2019-05-17T18:59:13.138Z,19.60
2019-05-17T19:01:41.152Z,19.50
2019-05-17T19:04:09.698Z,19.30
2019-05-17T19:06:37.760Z,19.20
2019-05-17T19:09:06.233Z,19.10
2019-05-17T19:11:34.321Z,19.30
2019-05-17T19:14:02.401Z,19.30
2019-05-17T19:16:30.451Z,19.20
2019-05-17T19:18:58.441Z,19.20
2019-05-17T19:21:26.499Z,18.70
2019-05-17T19:23:54.659Z,18.80
2019-05-17T19:26:22.670Z,18.60
2019-05-17T19:28:50.670Z,18.40
2019-05-17T19:31:18.700Z,18.10
2019-05-17T19:33:46.766Z,18.10
2019-05-17T19:36:14.903Z,17.90
2019-05-17T19:38:42.996Z,17.90
2019-05-17T19:41:10.982Z,17.80
2019-05-17T19:43:39.012Z,17.60
2019-05-17T19:46:07.105Z,17.40
2019-05-17T19:48:35.246Z,17.40
2019-05-17T19:51:03.244Z,17.30
2019-05-17T19:53:31.218Z,17.00
2019-05-17T19:55:59.209Z,16.80
2019-05-17T19:58:27.247Z,16.80
2019-05-17T20:00:55.322Z,16.70
2019-05-17T20:03:23.495Z,16.60
2019-05-17T20:05:51.828Z,16.80
2019-05-17T20:08:19.872Z,16.80
2019-05-17T20:10:51.459Z,16.80
2019-05-17T20:13:17.729Z,17.20
2019-05-17T20:15:45.788Z,17.00
2019-05-17T20:18:13.793Z,17.10
2019-05-17T20:20:41.833Z,17.30
2019-05-17T20:23:09.832Z,17.20
2019-05-17T20:25:37.820Z,17.00
2019-05-17T20:28:05.856Z,16.90
2019-05-17T20:30:33.868Z,16.80
2019-05-17T20:33:01.915Z,16.80
2019-05-17T20:35:29.964Z,16.50
2019-05-17T20:37:58.124Z,16.40
2019-05-17T20:40:26.244Z,16.50
2019-05-17T20:42:54.392Z,16.60
2019-05-17T20:45:32.774Z,16.60
2019-05-17T20:47:52.080Z,17.10
2019-05-17T20:50:20.144Z,17.40
2019-05-17T20:52:48.160Z,17.40
2019-05-17T20:55:16.320Z,17.20
2019-05-17T20:57:44.329Z,17.00
2019-05-17T21:00:13.548Z,17.00
2019-05-17T21:02:41.545Z,16.90
2019-05-17T21:05:11.101Z,17.10
2019-05-17T21:07:39.156Z,16.90
2019-05-17T21:10:07.298Z,16.80
2019-05-17T21:12:35.368Z,16.90
2019-05-17T21:15:04.499Z,16.90
2019-05-17T21:17:32.516Z,16.80
2019-05-17T21:20:00.569Z,17.00
2019-05-17T21:22:28.601Z,17.30
2019-05-17T21:24:56.781Z,17.60
2019-05-17T21:27:24.881Z,17.40
2019-05-17T21:29:52.909Z,17.30
2019-05-17T21:32:20.921Z,17.30
2019-05-17T21:34:48.918Z,17.20
2019-05-17T21:37:16.990Z,17.10
2019-05-17T21:39:45.049Z,17.10
2019-05-17T21:42:13.028Z,17.00
2019-05-17T21:44:41.116Z,17.00
2019-05-17T21:47:09.100Z,16.90
2019-05-17T21:49:37.135Z,17.00
2019-05-17T21:52:05.210Z,17.00
2019-05-17T21:54:33.509Z,17.10
2019-05-17T21:57:01.541Z,17.10
2019-05-17T21:59:29.548Z,17.20
2019-05-17T22:01:58.233Z,17.40
2019-05-17T22:04:27.143Z,17.30
2019-05-17T22:06:55.711Z,17.50
2019-05-17T22:09:23.740Z,17.80
2019-05-17T22:11:53.372Z,17.60
2019-05-17T22:14:21.479Z,17.50
2019-05-17T22:16:49.619Z,17.50
2019-05-17T22:19:17.703Z,17.70
2019-05-17T22:21:45.756Z,17.80
2019-05-17T22:24:13.774Z,17.90
2019-05-17T22:26:41.905Z,18.00
2019-05-17T22:29:10.001Z,18.10
2019-05-17T22:31:39.058Z,18.00
2019-05-17T22:34:07.258Z,18.10
2019-05-17T22:36:35.321Z,18.10
2019-05-17T22:39:04.650Z,18.30
2019-05-17T22:41:32.795Z,18.50
2019-05-17T22:44:00.954Z,18.30
2019-05-17T22:46:36.210Z,18.40
2019-05-17T22:48:58.634Z,18.20
2019-05-17T22:51:26.621Z,17.80
2019-05-17T22:53:54.741Z,17.50
2019-05-17T22:56:22.772Z,17.50
2019-05-17T22:58:50.765Z,17.40
2019-05-17T23:01:18.810Z,17.20
2019-05-17T23:03:46.890Z,17.30
2019-05-17T23:06:14.955Z,17.40
2019-05-17T23:08:43.123Z,17.20
2019-05-17T23:11:11.106Z,17.00
2019-05-17T23:13:39.173Z,17.10
2019-05-17T23:16:08.803Z,17.00
2019-05-17T23:18:36.903Z,17.00
2019-05-17T23:21:05.138Z,16.80
2019-05-17T23:23:33.219Z,16.70
2019-05-17T23:26:01.267Z,16.60
2019-05-17T23:28:29.433Z,16.80
